createdAt,value
2022-08-05T00:00:50.772Z,95862.41
2022-08-05T00:03:52.523Z,95863.94
2022-08-05T00:06:54.839Z,95859.81
2022-08-05T00:09:57.532Z,95850.47
2022-08-05T00:13:00.272Z,95849.88
2022-08-05T00:16:02.176Z,95840.41
2022-08-05T00:19:04.983Z,95843.59
2022-08-05T00:22:07.630Z,95843.84
2022-08-05T00:25:14.349Z,95841.84
2022-08-05T00:28:21.185Z,95837.91
2022-08-05T00:31:54.035Z,95836.53
2022-08-05T00:35:06.695Z,95837.81
2022-08-05T00:38:09.534Z,95820.19
2022-08-05T00:41:11.657Z,95823.97
2022-08-05T00:44:13.851Z,95826.94
2022-08-05T00:47:16.468Z,95831.19
2022-08-05T00:50:18.786Z,95831.41
2022-08-05T00:53:45.031Z,95838.38
2022-08-05T00:56:51.298Z,95838.84
2022-08-05T00:59:53.748Z,95840.38
2022-08-05T01:02:56.724Z,95834.59
2022-08-05T01:05:58.777Z,95834.00
2022-08-05T01:09:00.589Z,95835.28
2022-08-05T01:12:18.703Z,95827.88
2022-08-05T01:15:36.502Z,95831.03
2022-08-05T01:18:43.118Z,95827.13
2022-08-05T01:22:07.029Z,95825.94
2022-08-05T01:25:43.612Z,95827.25
2022-08-05T01:29:08.900Z,95830.41
2022-08-05T01:32:18.546Z,95832.53
2022-08-05T01:35:50.678Z,95825.69
2022-08-05T01:38:49.966Z,95825.31
2022-08-05T01:41:54.495Z,95833.47
2022-08-05T01:44:59.919Z,95829.91
2022-08-05T01:48:10.462Z,95834.97
2022-08-05T01:51:14.502Z,95838.72
2022-08-05T01:54:20.209Z,95836.25
2022-08-05T01:58:12.557Z,95829.16
2022-08-05T02:00:56.740Z,95823.94
2022-08-05T02:04:01.547Z,95829.63
2022-08-05T02:07:03.576Z,95828.19
2022-08-05T02:10:08.307Z,95822.41
2022-08-05T02:13:17.269Z,95826.19
2022-08-05T02:16:44.161Z,95822.88
2022-08-05T02:19:54.783Z,95827.91
2022-08-05T02:23:03.065Z,95834.66
2022-08-05T02:26:09.532Z,95838.03
2022-08-05T02:29:21.614Z,95830.13
2022-08-05T02:32:31.489Z,95835.81
2022-08-05T02:35:38.543Z,95835.81
2022-08-05T02:38:56.031Z,95828.13
2022-08-05T02:42:01.656Z,95833.75
2022-08-05T02:45:03.831Z,95831.06
2022-08-05T02:48:12.377Z,95834.81
2022-08-05T02:51:17.164Z,95827.16
2022-08-05T02:54:35.793Z,95827.25
2022-08-05T02:58:10.667Z,95831.63
2022-08-05T03:01:02.809Z,95822.50
2022-08-05T03:04:13.970Z,95826.28
2022-08-05T03:07:17.621Z,95835.69
2022-08-05T03:10:38.074Z,95825.75
2022-08-05T03:13:52.095Z,95821.16
2022-08-05T03:17:02.692Z,95823.28
2022-08-05T03:20:10.152Z,95826.22
2022-08-05T03:23:12.866Z,95834.34
2022-08-05T03:26:31.755Z,95835.88
2022-08-05T03:29:45.796Z,95835.69
2022-08-05T03:32:56.796Z,95846.19
2022-08-05T03:35:58.998Z,95857.88
2022-08-05T03:39:07.805Z,95860.78
2022-08-05T03:42:09.632Z,95869.97
2022-08-05T03:45:22.087Z,95875.41
2022-08-05T03:48:25.303Z,95882.13
2022-08-05T03:52:37.397Z,95877.75
2022-08-05T03:56:05.120Z,95876.91
2022-08-05T03:58:36.747Z,95879.16
2022-08-05T04:01:42.471Z,95877.06
2022-08-05T04:04:47.635Z,95881.88
2022-08-05T04:07:57.543Z,95879.56
2022-08-05T04:11:03.238Z,95881.22
2022-08-05T04:14:05.291Z,95882.03
2022-08-05T04:17:09.281Z,95879.09
2022-08-05T04:20:21.113Z,95879.91
2022-08-05T04:23:57.109Z,95868.84
2022-08-05T04:26:48.789Z,95871.34
2022-08-05T04:29:50.446Z,95874.06
2022-08-05T04:32:52.643Z,95881.50
2022-08-05T04:36:16.152Z,95886.47
2022-08-05T04:39:16.061Z,95881.88
2022-08-05T04:42:17.787Z,95890.38
2022-08-05T04:45:47.729Z,95896.81
2022-08-05T04:48:48.749Z,95890.91
2022-08-05T04:51:58.262Z,95884.00
2022-08-05T04:55:14.687Z,95896.16
2022-08-05T04:58:20.193Z,95897.16
2022-08-05T05:02:08.030Z,95885.00
2022-08-05T05:04:47.857Z,95887.03
2022-08-05T05:07:52.895Z,95900.03
2022-08-05T05:10:58.343Z,95906.22
2022-08-05T05:14:00.818Z,95900.50
2022-08-05T05:17:07.576Z,95907.25
2022-08-05T05:20:13.106Z,95904.00
2022-08-05T05:23:19.515Z,95917.59
2022-08-05T05:26:28.451Z,95903.47
2022-08-05T05:30:03.628Z,95902.88
2022-08-05T05:32:56.364Z,95908.91
2022-08-05T05:35:58.116Z,95912.00
2022-08-05T05:39:03.764Z,95916.06
2022-08-05T05:42:06.133Z,95925.53
2022-08-05T05:45:09.234Z,95929.78
2022-08-05T05:48:10.858Z,95927.13
2022-08-05T05:51:22.232Z,95929.66
2022-08-05T05:54:49.735Z,95931.84
2022-08-05T05:57:52.767Z,95943.28
2022-08-05T06:00:54.747Z,95939.69
2022-08-05T06:04:01.700Z,95938.56
2022-08-05T06:07:05.186Z,95933.91
2022-08-05T06:10:10.513Z,95933.88
2022-08-05T06:13:12.692Z,95922.66
2022-08-05T06:16:28.596Z,95919.59
2022-08-05T06:19:35.573Z,95917.63
2022-08-05T06:22:37.578Z,95927.03
2022-08-05T06:26:12.788Z,95935.06
2022-08-05T06:29:23.658Z,95938.69
2022-08-05T06:32:29.229Z,95944.31
2022-08-05T06:36:07.702Z,95928.06
2022-08-05T06:38:54.723Z,95946.47
2022-08-05T06:42:03.859Z,95943.84
2022-08-05T06:45:08.297Z,95967.16
2022-08-05T06:48:36.497Z,95975.34
2022-08-05T06:51:32.786Z,95982.75
2022-08-05T06:54:34.711Z,95993.19
2022-08-05T06:58:03.890Z,95996.22
2022-08-05T07:01:01.123Z,95985.06
2022-08-05T07:04:03.292Z,96000.84
2022-08-05T07:07:08.008Z,95997.25
2022-08-05T07:10:10.406Z,96008.47
2022-08-05T07:13:57.184Z,96029.47
2022-08-05T07:18:00.304Z,96062.00
2022-08-05T07:20:38.914Z,96067.88
2022-08-05T07:23:49.771Z,96064.47
2022-08-05T07:26:53.872Z,96071.06
2022-08-05T07:30:24.260Z,96077.78
2022-08-05T07:33:21.483Z,96070.84
2022-08-05T07:36:39.056Z,96085.97
2022-08-05T07:40:04.290Z,96081.66
2022-08-05T07:43:07.368Z,96093.63
2022-08-05T07:46:24.390Z,96093.19
2022-08-05T07:49:27.673Z,96093.19
2022-08-05T07:52:29.618Z,96091.84
2022-08-05T07:56:04.947Z,96100.22
2022-08-05T07:58:57.766Z,96112.34
2022-08-05T08:02:03.037Z,96109.06
2022-08-05T08:05:05.529Z,96097.72
2022-08-05T08:08:07.157Z,96090.47
2022-08-05T08:11:15.975Z,96110.34
2022-08-05T08:14:18.403Z,96110.38
2022-08-05T08:17:21.713Z,96113.22
2022-08-05T08:20:44.442Z,96116.00
2022-08-05T08:24:01.571Z,96127.81
2022-08-05T08:27:07.324Z,96122.09
2022-08-05T08:30:28.465Z,96129.84
2022-08-05T08:33:37.471Z,96130.72
2022-08-05T08:36:49.946Z,96126.13
2022-08-05T08:39:54.430Z,96128.88
2022-08-05T08:42:56.618Z,96135.16
2022-08-05T08:46:01.047Z,96128.75
2022-08-05T08:50:23.236Z,96138.41
2022-08-05T08:52:30.459Z,96149.72
2022-08-05T08:56:03.653Z,96145.44
2022-08-05T08:58:59.299Z,96139.25
2022-08-05T09:02:18.465Z,96146.44
2022-08-05T09:05:38.309Z,96135.03
2022-08-05T09:08:40.878Z,96143.59
2022-08-05T09:11:53.194Z,96148.84
2022-08-05T09:15:05.772Z,96149.72
2022-08-05T09:18:09.026Z,96150.91
2022-08-05T09:21:11.488Z,96144.13
2022-08-05T09:24:13.685Z,96167.16
2022-08-05T09:28:04.170Z,96156.50
2022-08-05T09:31:22.707Z,96158.44
2022-08-05T09:34:26.464Z,96171.97
2022-08-05T09:38:16.648Z,96162.69
2022-08-05T09:40:53.593Z,96164.63
2022-08-05T09:43:55.656Z,96159.72
2022-08-05T09:47:12.819Z,96159.00
2022-08-05T09:50:38.012Z,96151.34
2022-08-05T09:53:55.207Z,96153.03
2022-08-05T09:57:01.479Z,96151.69
2022-08-05T10:00:14.077Z,96150.91
2022-08-05T10:03:15.722Z,96150.09
2022-08-05T10:06:19.955Z,96150.13
2022-08-05T10:09:27.693Z,96142.44
2022-08-05T10:12:40.951Z,96143.59
2022-08-05T10:15:51.958Z,96158.75
2022-08-05T10:20:03.192Z,96146.94
2022-08-05T10:22:51.082Z,96150.25
2022-08-05T10:25:54.977Z,96148.59
2022-08-05T10:28:56.707Z,96153.00
2022-08-05T10:32:54.350Z,96146.16
2022-08-05T10:35:20.493Z,96151.34
2022-08-05T10:38:36.996Z,96147.22
2022-08-05T10:42:00.895Z,96149.72
2022-08-05T10:45:21.007Z,96150.53
2022-08-05T10:48:52.572Z,96139.81
2022-08-05T10:52:03.282Z,96139.28
2022-08-05T10:55:10.254Z,96137.09
2022-08-05T10:58:17.950Z,96129.69
2022-08-05T11:01:55.471Z,96125.88
2022-08-05T11:04:55.247Z,96133.81
2022-08-05T11:08:02.439Z,96133.03
2022-08-05T11:11:52.019Z,96125.06
2022-08-05T11:15:19.237Z,96122.28
2022-08-05T11:18:29.964Z,96118.19
2022-08-05T11:21:48.926Z,96119.53
2022-08-05T11:26:05.450Z,96108.56
2022-08-05T11:28:53.637Z,96109.09
2022-08-05T11:32:26.570Z,96112.38
2022-08-05T11:36:08.348Z,96114.31
2022-08-05T11:39:12.168Z,96106.88
2022-08-05T11:42:18.557Z,96106.56
2022-08-05T11:46:14.497Z,96101.06
2022-08-05T11:48:42.395Z,96105.72
2022-08-05T11:51:49.772Z,96094.13
2022-08-05T11:54:55.026Z,96095.22
2022-08-05T11:58:09.649Z,96094.06
2022-08-05T12:01:19.308Z,96094.59
2022-08-05T12:04:21.805Z,96088.78
2022-08-05T12:08:03.797Z,96089.81
2022-08-05T12:10:48.878Z,96090.63
2022-08-05T12:14:04.154Z,96087.81
2022-08-05T12:18:03.651Z,96086.13
2022-08-05T12:20:38.525Z,96085.00
2022-08-05T12:23:43.171Z,96077.00
2022-08-05T12:26:54.037Z,96083.63
2022-08-05T12:30:06.198Z,96081.91
2022-08-05T12:33:27.344Z,96079.13
2022-08-05T12:36:30.762Z,96075.47
2022-08-05T12:39:34.451Z,96058.84
2022-08-05T12:42:40.122Z,96056.81
2022-08-05T12:45:55.905Z,96044.38
2022-08-05T12:49:18.902Z,96052.53
2022-08-05T12:52:25.382Z,96036.38
2022-08-05T12:55:32.487Z,96039.28
2022-08-05T12:58:49.830Z,96037.16
2022-08-05T13:02:07.113Z,96031.97
2022-08-05T13:05:12.601Z,96027.09
2022-08-05T13:08:18.384Z,96024.06
2022-08-05T13:11:59.760Z,96016.13
2022-08-05T13:14:46.273Z,96017.66
2022-08-05T13:18:01.166Z,96015.63
2022-08-05T13:21:02.939Z,96011.06
2022-08-05T13:24:08.967Z,96003.56
2022-08-05T13:27:11.039Z,96012.53
2022-08-05T13:30:34.451Z,96002.72
2022-08-05T13:34:23.086Z,95999.47
2022-08-05T13:37:00.264Z,95995.25
2022-08-05T13:40:16.065Z,95989.09
2022-08-05T13:43:24.257Z,95985.66
2022-08-05T13:47:04.986Z,95991.22
2022-08-05T13:50:11.261Z,95987.16
2022-08-05T13:53:15.798Z,95982.22
2022-08-05T13:56:18.473Z,95976.56
2022-08-05T13:59:24.235Z,95978.69
2022-08-05T14:02:29.935Z,95978.16
2022-08-05T14:06:24.478Z,95982.06
2022-08-05T14:08:54.702Z,95976.88
2022-08-05T14:12:04.298Z,95985.63
2022-08-05T14:16:08.733Z,95983.00
2022-08-05T14:18:39.653Z,95974.69
2022-08-05T14:22:10.351Z,95974.50
2022-08-05T14:25:06.310Z,95981.88
2022-08-05T14:28:27.027Z,95970.00
2022-08-05T14:32:02.296Z,95964.59
2022-08-05T14:34:51.583Z,95958.25
2022-08-05T14:37:55.450Z,95954.38
2022-08-05T14:40:57.470Z,95947.69
2022-08-05T14:44:09.799Z,95933.78
2022-08-05T14:47:58.325Z,95933.75
2022-08-05T14:50:43.529Z,95920.50
2022-08-05T14:54:26.027Z,95924.72
2022-08-05T14:57:09.593Z,95928.66
2022-08-05T15:00:15.700Z,95918.31
2022-08-05T15:03:21.600Z,95919.84
2022-08-05T15:06:28.005Z,95913.72
2022-08-05T15:09:52.169Z,95917.31
2022-08-05T15:13:00.989Z,95910.94
2022-08-05T15:16:05.665Z,95913.91
2022-08-05T15:19:08.594Z,95921.09
2022-08-05T15:22:27.162Z,95908.47
2022-08-05T15:25:51.915Z,95914.25
2022-08-05T15:28:52.090Z,95920.09
2022-08-05T15:31:53.868Z,95917.06
2022-08-05T15:34:55.956Z,95921.69
2022-08-05T15:38:32.636Z,95931.03
2022-08-05T15:41:24.403Z,95930.06
2022-08-05T15:44:30.349Z,95942.56
2022-08-05T15:47:32.579Z,95939.50
2022-08-05T15:50:37.646Z,95941.22
2022-08-05T15:53:51.231Z,95935.72
2022-08-05T15:56:53.344Z,95946.44
2022-08-05T15:59:57.792Z,95947.94
2022-08-05T16:03:00.084Z,95951.44
2022-08-05T16:06:02.361Z,95942.13
2022-08-05T16:09:04.256Z,95949.44
2022-08-05T16:12:06.531Z,95949.25
2022-08-05T16:15:09.497Z,95952.97
2022-08-05T16:18:12.320Z,95952.72
2022-08-05T16:21:16.099Z,95946.88
2022-08-05T16:24:39.897Z,95947.09
2022-08-05T16:27:47.393Z,95942.25
2022-08-05T16:31:03.397Z,95949.94
2022-08-05T16:34:05.696Z,95946.69
2022-08-05T16:38:02.248Z,95946.25
2022-08-05T16:40:33.141Z,95952.75
2022-08-05T16:43:35.242Z,95950.31
2022-08-05T16:46:37.483Z,95953.41
2022-08-05T16:49:43.072Z,95952.81
2022-08-05T16:52:46.066Z,95950.91
2022-08-05T16:55:47.914Z,95955.88
2022-08-05T16:58:49.991Z,95951.78
2022-08-05T17:01:53.602Z,95956.19
2022-08-05T17:04:57.376Z,95952.56
2022-08-05T17:07:59.034Z,95947.81
2022-08-05T17:11:01.374Z,95942.56
2022-08-05T17:14:06.285Z,95947.53
2022-08-05T17:17:14.214Z,95952.75
2022-08-05T17:20:16.632Z,95947.41
2022-08-05T17:24:05.534Z,95952.25
2022-08-05T17:26:40.869Z,95949.94
2022-08-05T17:29:42.700Z,95956.44
2022-08-05T17:32:44.496Z,95961.25
2022-08-05T17:36:07.925Z,95953.94
2022-08-05T17:39:23.793Z,95952.56
2022-08-05T17:42:31.986Z,95961.00
2022-08-05T17:45:38.665Z,95962.97
2022-08-05T17:48:40.548Z,95967.25
2022-08-05T17:51:46.873Z,95965.97
2022-08-05T17:54:52.337Z,95974.88
2022-08-05T17:57:54.254Z,95977.00
2022-08-05T18:00:57.044Z,95969.94
2022-08-05T18:04:04.571Z,95978.91
2022-08-05T18:07:07.797Z,95984.81
2022-08-05T18:10:21.430Z,95981.06
2022-08-05T18:13:23.256Z,95991.94
2022-08-05T18:16:27.441Z,95989.56
2022-08-05T18:19:29.947Z,95989.03
2022-08-05T18:22:46.018Z,95993.81
2022-08-05T18:25:57.373Z,95983.44
2022-08-05T18:29:00.340Z,95995.03
2022-08-05T18:32:02.974Z,96004.44
2022-08-05T18:35:05.253Z,96005.06
2022-08-05T18:38:07.723Z,96007.53
2022-08-05T18:41:57.051Z,96009.75
2022-08-05T18:44:35.170Z,96011.72
2022-08-05T18:47:56.688Z,96008.97
2022-08-05T18:52:05.714Z,96015.88
2022-08-05T18:54:42.750Z,96019.19
2022-08-05T18:57:52.574Z,96025.81
2022-08-05T19:00:58.525Z,96030.75
2022-08-05T19:04:06.019Z,96031.84
2022-08-05T19:07:14.008Z,96025.84
2022-08-05T19:10:17.518Z,96031.88
2022-08-05T19:13:19.767Z,96051.38
2022-08-05T19:16:25.067Z,96064.00
2022-08-05T19:19:30.867Z,96071.19
2022-08-05T19:22:32.789Z,96083.53
2022-08-05T19:25:42.011Z,96071.44
2022-08-05T19:28:45.478Z,96078.84
2022-08-05T19:31:50.886Z,96084.56
2022-08-05T19:34:54.924Z,96104.00
2022-08-05T19:38:06.575Z,96099.03
2022-08-05T19:41:10.386Z,96097.66
2022-08-05T19:44:13.250Z,96103.66
2022-08-05T19:47:16.278Z,96125.59
2022-08-05T19:50:19.967Z,96128.00
2022-08-05T19:54:04.563Z,96134.56
2022-08-05T19:56:44.228Z,96138.09
2022-08-05T19:59:55.411Z,96146.03
2022-08-05T20:03:13.247Z,96152.84
2022-08-05T20:06:28.993Z,96161.63
2022-08-05T20:09:53.999Z,96184.91
2022-08-05T20:12:59.917Z,96208.47
2022-08-05T20:16:26.398Z,96207.63
2022-08-05T20:19:36.018Z,96219.09
2022-08-05T20:22:38.209Z,96223.75
2022-08-05T20:25:43.212Z,96230.81
2022-08-05T20:28:50.522Z,96237.94
2022-08-05T20:31:57.673Z,96243.09
2022-08-05T20:34:59.804Z,96245.53
2022-08-05T20:38:07.946Z,96249.06
2022-08-05T20:41:10.137Z,96265.44
2022-08-05T20:44:19.191Z,96281.84
2022-08-05T20:47:32.745Z,96285.59
2022-08-05T20:50:36.941Z,96301.91
2022-08-05T20:53:41.337Z,96300.78
2022-08-05T20:56:42.975Z,96314.13
2022-08-05T20:59:46.305Z,96318.47
2022-08-05T21:03:08.132Z,96316.72
2022-08-05T21:06:27.489Z,96319.09
2022-08-05T21:09:30.265Z,96316.81
2022-08-05T21:12:36.089Z,96320.72
2022-08-05T21:15:37.675Z,96320.78
2022-08-05T21:18:39.368Z,96329.91
2022-08-05T21:21:51.005Z,96338.72
2022-08-05T21:24:54.403Z,96352.16
2022-08-05T21:27:56.523Z,96371.53
2022-08-05T21:30:58.975Z,96382.69
2022-08-05T21:34:00.711Z,96378.59
2022-08-05T21:37:04.787Z,96381.75
2022-08-05T21:40:07.252Z,96381.53
2022-08-05T21:43:24.227Z,96367.06
2022-08-05T21:46:26.652Z,96375.88
2022-08-05T21:49:48.342Z,96375.34
2022-08-05T21:52:52.289Z,96365.25
2022-08-05T21:56:05.809Z,96345.88
2022-08-05T21:59:24.105Z,96353.59
2022-08-05T22:02:27.981Z,96352.75
2022-08-05T22:05:29.611Z,96349.56
2022-08-05T22:08:51.835Z,96359.16
2022-08-05T22:11:54.658Z,96370.44
2022-08-05T22:14:58.760Z,96404.84
2022-08-05T22:18:01.693Z,96432.56
2022-08-05T22:21:04.190Z,96433.22
2022-08-05T22:24:39.564Z,96436.34
2022-08-05T22:28:08.497Z,96446.97
2022-08-05T22:31:06.087Z,96461.25
2022-08-05T22:34:08.008Z,96475.41
2022-08-05T22:37:10.023Z,96478.97
2022-08-05T22:40:16.813Z,96488.97
2022-08-05T22:43:37.295Z,96488.47
2022-08-05T22:46:40.979Z,96490.94
2022-08-05T22:50:21.445Z,96500.47
2022-08-05T22:53:09.833Z,96504.59
2022-08-05T22:56:11.758Z,96520.97
2022-08-05T22:59:46.537Z,96517.47
2022-08-05T23:02:40.110Z,96520.03
2022-08-05T23:05:48.450Z,96519.06
2022-08-05T23:08:52.313Z,96524.13
2022-08-05T23:11:54.042Z,96526.88
2022-08-05T23:14:55.689Z,96527.09
2022-08-05T23:18:00.670Z,96532.97
2022-08-05T23:21:03.576Z,96533.19
2022-08-05T23:24:11.305Z,96543.66
2022-08-05T23:27:13.459Z,96544.72
2022-08-05T23:30:15.133Z,96549.53
2022-08-05T23:33:25.589Z,96554.13
2022-08-05T23:36:28.379Z,96553.53
2022-08-05T23:39:53.568Z,96545.19
2022-08-05T23:42:55.711Z,96562.31
2022-08-05T23:45:57.691Z,96541.88
2022-08-05T23:49:03.788Z,96514.09
2022-08-05T23:52:30.557Z,96484.25
2022-08-05T23:55:33.143Z,96498.66
2022-08-05T23:58:34.775Z,96523.34
